Jolon, California
Current Conditions -  °F | °C
As of 1:53 AM on Sunday 23 Nov 2014 (Local Time) from KPRB Reporting Station
Clear Clear  
Wind Chill: 50°   Ceiling: Unl
Heat Index: 50°   Visibility: 10mi
Dew Point: 47°   Wind: 6mph
Humidity: 89%   Direction: 60°ENE
Pressure: 30.18"   Gusts: NA
Location:  35.97°N, 121.18°W
Report Text: KPRB 230953Z AUTO 06005KT 10SM CLR 10/08 A3018 RMK AO2 SLP218 T01000083 TSNO
Loading
Personal Weather Stations






























Interactive Weather Map New forecast layout! Learn more

10-Day Weather Forecast

Advertisements
Track Severe Weather on mobile